Time;durP1;ratioP1;P1;durP2;ratioP2;P2;SDS_P1;SDS_P2;PMS_P1;PMS_P2;Temp;Humidity;BMP_temperature;BMP_pressure;BME280_temperature;BME280_humidity;BME280_pressure;Samples;Min_cycle;Max_cycle;Signal;HPM_P1;HPM_P2
2023/10/19 03:57:23;;;;;;;25.12;14.02;;;;;;;6.67;100.00;99696.28;6156977;27;20137;-83
2023/10/19 04:00:28;;;;;;;23.65;12.68;;;;;;;6.65;100.00;99690.25;5397427;33;33615;-84
2023/10/19 04:03:32;;;;;;;24.98;13.18;;;;;;;6.56;100.00;99694.78;5387489;33;33663;-84
2023/10/19 04:06:36;;;;;;;24.20;14.18;;;;;;;6.56;100.00;99692.12;5405295;32;34060;-84
2023/10/19 04:09:57;;;;;;;26.42;13.85;;;;;;;6.58;100.00;99689.25;5415092;32;34602;-84
2023/10/19 04:13:00;;;;;;;26.08;13.57;;;;;;;6.62;100.00;99679.91;5410857;32;33847;-85
2023/10/19 04:16:05;;;;;;;24.08;13.05;;;;;;;6.65;100.00;99682.25;5399593;32;33375;-85
2023/10/19 04:19:10;;;;;;;36.13;14.40;;;;;;;6.76;100.00;99675.72;5399354;32;33419;-84
2023/10/19 04:22:22;;;;;;;24.58;13.15;;;;;;;6.75;100.00;99663.31;5382761;33;34415;-84
2023/10/19 04:25:25;;;;;;;21.40;13.02;;;;;;;6.78;100.00;99658.47;5372944;33;33858;-84
2023/10/19 04:28:38;;;;;;;25.62;13.57;;;;;;;6.73;100.00;99654.66;5382816;33;34701;-84
2023/10/19 04:31:49;;;;;;;26.17;13.35;;;;;;;6.72;100.00;99643.09;5382222;33;33465;-84
2023/10/19 04:34:53;;;;;;;26.08;13.98;;;;;;;6.65;100.00;99646.66;5391649;32;33693;-84
2023/10/19 04:37:56;;;;;;;26.50;13.68;;;;;;;6.62;100.00;99639.78;5391626;33;33690;-84
2023/10/19 04:41:07;;;;;;;22.27;12.98;;;;;;;6.68;100.00;99638.28;5391788;33;34069;-84
2023/10/19 04:44:10;;;;;;;26.80;14.23;;;;;;;6.77;100.00;99637.25;5423326;32;34196;-84
2023/10/19 04:47:13;;;;;;;29.92;14.93;;;;;;;6.75;100.00;99625.88;5407064;32;34016;-84
2023/10/19 04:50:16;;;;;;;20.88;12.35;;;;;;;6.74;100.00;99629.56;5414319;32;33754;-84
2023/10/19 04:53:20;;;;;;;27.02;14.35;;;;;;;6.71;100.00;99635.25;5401105;32;35265;-84
2023/10/19 04:56:23;;;;;;;26.23;13.95;;;;;;;6.68;100.00;99625.72;5389067;32;33633;-84
2023/10/19 04:59:25;;;;;;;23.92;13.20;;;;;;;6.73;100.00;99625.22;5400705;32;33783;-84
2023/10/19 05:02:29;;;;;;;23.80;14.02;;;;;;;6.79;100.00;99616.50;5388585;32;34012;-84
2023/10/19 05:05:32;;;;;;;24.83;13.75;;;;;;;6.63;100.00;99622.72;5388475;32;33582;-84
2023/10/19 05:08:36;;;;;;;22.05;12.35;;;;;;;6.67;100.00;99618.72;5400696;32;33483;-84
2023/10/19 05:11:40;;;;;;;22.73;13.18;;;;;;;6.60;100.00;99620.41;5413162;32;33502;-84
2023/10/19 05:14:43;;;;;;;24.55;12.25;;;;;;;6.51;100.00;99626.78;5400446;32;34899;-84
2023/10/19 05:17:47;;;;;;;22.85;12.75;;;;;;;6.55;100.00;99620.94;5400433;32;33726;-84
2023/10/19 05:20:55;;;;;;;22.13;11.90;;;;;;;6.54;100.00;99619.25;5400164;32;34660;-84
2023/10/19 05:24:00;;;;;;;21.30;11.52;;;;;;;6.65;100.00;99622.56;5400646;32;34701;-84
2023/10/19 05:27:03;;;;;;;19.08;11.43;;;;;;;6.71;100.00;99625.38;5396665;32;34546;-84
2023/10/19 05:30:10;;;;;;;24.27;12.18;;;;;;;6.71;100.00;99627.22;5401798;32;34786;-84
2023/10/19 05:33:13;;;;;;;26.80;13.25;;;;;;;6.71;100.00;99630.75;5398305;32;33858;-84
2023/10/19 05:36:18;;;;;;;17.58;10.77;;;;;;;6.68;100.00;99628.41;5353869;33;33509;-84
2023/10/19 05:39:27;;;;;;;25.20;11.95;;;;;;;6.64;100.00;99620.87;5387220;32;33814;-84
2023/10/19 05:42:31;;;;;;;25.97;11.47;;;;;;;6.63;100.00;99622.72;5366370;33;35385;-88
2023/10/19 05:45:36;;;;;;;24.35;12.48;;;;;;;6.64;100.00;99627.09;5369039;32;34035;-88
2023/10/19 05:48:41;;;;;;;21.52;12.13;;;;;;;6.61;100.00;99632.78;5402715;32;33453;-85
2023/10/19 05:51:44;;;;;;;23.95;13.23;;;;;;;6.68;100.00;99625.72;5390200;32;34214;-85
2023/10/19 05:54:49;;;;;;;27.23;11.93;;;;;;;6.79;100.00;99621.88;5375442;32;35113;-84
2023/10/19 05:57:52;;;;;;;23.45;12.70;;;;;;;6.82;100.00;99619.69;5386915;32;34725;-84
2023/10/19 06:00:58;;;;;;;21.30;12.35;;;;;;;6.81;100.00;99623.38;5386905;32;33905;-85
2023/10/19 06:04:02;;;;;;;25.73;12.15;;;;;;;6.76;100.00;99609.66;5382273;33;34364;-84
2023/10/19 06:07:05;;;;;;;22.00;12.40;;;;;;;6.80;100.00;99618.19;5382658;33;33544;-84
2023/10/19 06:10:15;;;;;;;24.45;13.30;;;;;;;6.87;100.00;99626.34;5374922;33;33835;-84
2023/10/19 06:13:19;;;;;;;22.30;11.95;;;;;;;6.90;100.00;99623.31;5380034;33;33478;-86
2023/10/19 06:16:22;;;;;;;23.12;12.77;;;;;;;6.93;100.00;99614.94;5391098;32;34824;-84
2023/10/19 06:19:25;;;;;;;24.27;12.93;;;;;;;6.95;100.00;99612.94;5363966;33;34990;-84
2023/10/19 06:22:28;;;;;;;27.40;13.55;;;;;;;7.03;100.00;99619.09;5369746;33;33527;-84
2023/10/19 06:25:34;;;;;;;23.95;13.00;;;;;;;7.16;100.00;99607.00;5368835;33;34869;-83
2023/10/19 06:28:40;;;;;;;28.70;12.90;;;;;;;7.18;100.00;99607.66;5371027;33;33846;-82
2023/10/19 06:31:44;;;;;;;26.15;12.57;;;;;;;7.25;100.00;99603.25;5378622;33;33970;-82
2023/10/19 06:34:48;;;;;;;25.58;12.43;;;;;;;7.33;100.00;99589.81;5387403;33;34215;-83
2023/10/19 06:37:53;;;;;;;21.05;12.95;;;;;;;7.41;100.00;99583.59;5368965;33;33776;-83
2023/10/19 06:40:56;;;;;;;25.37;13.13;;;;;;;7.42;100.00;99588.75;5387851;32;33887;-82
2023/10/19 06:43:59;;;;;;;31.62;13.50;;;;;;;7.44;100.00;99588.59;5381222;32;34013;-82
2023/10/19 06:47:02;;;;;;;27.50;14.13;;;;;;;7.41;100.00;99583.59;5402048;32;33875;-83
2023/10/19 06:50:08;;;;;;;27.75;14.00;;;;;;;7.49;100.00;99581.72;5392779;32;33833;-82
2023/10/19 06:53:11;;;;;;;25.75;13.82;;;;;;;7.53;100.00;99598.25;5393541;32;33866;-83
2023/10/19 06:56:15;;;;;;;29.27;14.18;;;;;;;7.61;100.00;99598.19;5396597;32;34679;-83
2023/10/19 06:59:19;;;;;;;26.17;12.82;;;;;;;7.69;100.00;99595.47;5418515;32;33840;-84
2023/10/19 07:02:22;;;;;;;23.25;13.05;;;;;;;7.62;100.00;99586.47;5404940;32;33844;-83
2023/10/19 07:05:29;;;;;;;27.20;14.65;;;;;;;7.61;100.00;99584.81;5392329;32;33994;-83
2023/10/19 07:08:32;;;;;;;26.15;13.27;;;;;;;7.54;100.00;99577.66;5405070;32;33869;-84
2023/10/19 07:11:35;;;;;;;22.67;12.40;;;;;;;7.47;100.00;99575.69;5417593;32;33985;-84
2023/10/19 07:14:40;;;;;;;22.85;12.73;;;;;;;7.48;100.00;99573.84;5392350;32;34739;-83
2023/10/19 07:17:44;;;;;;;23.45;12.95;;;;;;;7.57;100.00;99577.28;5404472;32;34636;-83
2023/10/19 07:20:48;;;;;;;21.83;10.75;;;;;;;7.61;100.00;99568.72;5404195;32;33908;-83
2023/10/19 07:23:53;;;;;;;24.45;12.60;;;;;;;7.59;100.00;99568.06;5404256;32;34062;-83
2023/10/19 07:27:07;;;;;;;19.42;10.60;;;;;;;7.62;100.00;99553.50;5404297;32;34837;-83
2023/10/19 07:30:28;;;;;;;17.87;10.87;;;;;;;7.71;100.00;99560.44;5397521;32;34807;-84
2023/10/19 07:33:30;;;;;;;19.83;10.75;;;;;;;7.68;100.00;99558.97;5405341;32;34058;-83
2023/10/19 07:36:36;;;;;;;20.67;11.57;;;;;;;7.69;100.00;99557.09;5405502;32;34699;-83
2023/10/19 07:39:42;;;;;;;21.02;12.00;;;;;;;7.77;100.00;99556.22;5393535;32;33869;-82
2023/10/19 07:42:46;;;;;;;18.83;11.25;;;;;;;7.85;100.00;99556.16;5394359;32;34060;-83
2023/10/19 07:45:49;;;;;;;19.40;10.93;;;;;;;7.93;100.00;99550.72;5418926;32;34816;-83
2023/10/19 07:48:53;;;;;;;20.23;12.20;;;;;;;7.92;100.00;99530.28;5392635;32;34163;-82
2023/10/19 07:51:57;;;;;;;16.33;10.65;;;;;;;7.93;100.00;99527.44;5404502;32;34621;-82
2023/10/19 07:55:02;;;;;;;19.05;10.90;;;;;;;7.94;100.00;99526.41;5393281;32;34764;-82
2023/10/19 07:58:06;;;;;;;23.00;11.32;;;;;;;7.93;100.00;99531.97;5404951;32;33885;-83
2023/10/19 08:01:11;;;;;;;20.92;11.50;;;;;;;7.95;100.00;99530.75;5418354;32;34668;-82
2023/10/19 08:04:14;;;;;;;16.73;9.57;;;;;;;8.05;100.00;99521.66;5404825;32;34044;-83
2023/10/19 08:07:17;;;;;;;18.62;10.25;;;;;;;8.00;100.00;99510.63;5403970;32;33904;-83
2023/10/19 08:10:21;;;;;;;19.23;11.55;;;;;;;8.12;100.00;99514.53;5417090;32;33911;-83
2023/10/19 08:13:26;;;;;;;22.37;10.85;;;;;;;8.15;100.00;99506.13;5403845;32;34025;-83
2023/10/19 08:16:32;;;;;;;20.88;10.85;;;;;;;8.21;100.00;99512.59;5417154;32;33742;-83
2023/10/19 08:19:35;;;;;;;24.23;10.52;;;;;;;8.13;100.00;99514.34;5403882;32;35147;-83
2023/10/19 08:22:39;;;;;;;20.85;10.98;;;;;;;8.21;100.00;99509.91;5391730;32;33711;-84
2023/10/19 08:25:44;;;;;;;19.33;10.98;;;;;;;8.31;100.00;99499.75;5391492;32;33787;-82
2023/10/19 08:28:58;;;;;;;18.87;10.63;;;;;;;8.39;100.00;99492.50;5394073;32;33822;-83
2023/10/19 08:32:02;;;;;;;21.05;11.68;;;;;;;8.54;100.00;99488.94;5391501;32;33838;-83
2023/10/19 08:35:06;;;;;;;19.30;10.25;;;;;;;8.64;100.00;99492.19;5403281;32;33919;-82
2023/10/19 08:38:11;;;;;;;21.45;11.40;;;;;;;8.75;100.00;99486.34;5416478;32;35085;-82
2023/10/19 08:41:16;;;;;;;19.27;11.48;;;;;;;8.91;100.00;99487.12;5403634;32;34640;-83
2023/10/19 08:44:19;;;;;;;19.50;10.75;;;;;;;8.94;100.00;99489.44;5416771;32;33776;-83
2023/10/19 08:47:25;;;;;;;20.35;10.55;;;;;;;9.02;100.00;99487.47;5403071;32;34733;-83
2023/10/19 08:50:30;;;;;;;20.42;12.00;;;;;;;8.99;100.00;99484.34;5403275;32;35539;-83
2023/10/19 08:53:39;;;;;;;17.10;10.50;;;;;;;9.05;100.00;99465.59;5402959;32;33807;-83
2023/10/19 08:56:44;;;;;;;18.17;10.77;;;;;;;9.08;100.00;99464.41;5416400;32;34848;-83
2023/10/19 08:59:47;;;;;;;22.85;11.73;;;;;;;9.10;100.00;99467.72;5403785;32;31956;-87
2023/10/19 09:02:51;;;;;;;25.30;11.23;;;;;;;9.12;100.00;99462.16;5422073;32;33859;-86
2023/10/19 09:05:54;;;;;;;21.62;11.12;;;;;;;9.36;100.00;99455.56;5430860;32;35369;-87
2023/10/19 09:09:00;;;;;;;20.77;11.38;;;;;;;9.54;100.00;99462.16;5409436;32;34347;-84
2023/10/19 09:12:03;;;;;;;16.95;10.35;;;;;;;9.68;100.00;99451.50;5418733;32;33880;-83
2023/10/19 09:15:23;;;;;;;19.23;10.85;;;;;;;9.89;100.00;99448.78;5405315;32;34734;-83
2023/10/19 09:18:27;;;;;;;17.83;10.13;;;;;;;10.07;100.00;99447.44;5393181;32;33780;-83
2023/10/19 09:21:32;;;;;;;19.87;11.25;;;;;;;10.31;100.00;99446.16;5393684;32;35016;-83
2023/10/19 09:24:37;;;;;;;17.27;10.45;;;;;;;10.38;100.00;99452.41;5393535;32;33856;-83
2023/10/19 09:27:40;;;;;;;17.10;10.98;;;;;;;10.28;100.00;99451.94;5418331;32;34617;-83
2023/10/19 09:30:44;;;;;;;19.95;10.90;;;;;;;10.24;100.00;99440.72;5405051;32;33857;-83
2023/10/19 09:33:48;;;;;;;17.20;10.55;;;;;;;10.50;100.00;99432.00;5419033;32;34567;-83
2023/10/19 09:36:52;;;;;;;17.33;11.05;;;;;;;10.91;100.00;99433.78;5419053;32;33787;-83
2023/10/19 09:39:56;;;;;;;18.00;10.88;;;;;;;11.27;100.00;99432.59;5394198;32;34665;-83
2023/10/19 09:43:06;;;;;;;18.27;11.60;;;;;;;11.67;100.00;99435.28;5393997;32;35015;-83
2023/10/19 09:46:13;;;;;;;17.58;10.00;;;;;;;11.97;100.00;99433.84;5419074;32;33901;-83
2023/10/19 09:49:18;;;;;;;17.98;10.50;;;;;;;11.80;100.00;99428.03;5405390;32;33873;-83
2023/10/19 09:52:21;;;;;;;18.35;10.82;;;;;;;11.78;100.00;99434.66;5405438;32;33774;-83
2023/10/19 09:55:33;;;;;;;18.98;11.25;;;;;;;11.55;100.00;99417.06;5404935;32;33875;-83
2023/10/19 09:58:44;;;;;;;18.73;10.93;;;;;;;11.42;100.00;99397.38;5418027;32;35477;-83
2023/10/19 10:02:08;;;;;;;19.48;10.98;;;;;;;11.39;100.00;99398.59;5418020;32;33964;-83
2023/10/19 10:05:42;;;;;;;17.35;10.73;;;;;;;11.37;100.00;99395.28;5404765;32;34167;-83
2023/10/19 10:08:46;;;;;;;18.12;10.25;;;;;;;11.52;100.00;99384.28;5418008;32;33857;-83
2023/10/19 10:11:52;;;;;;;20.92;10.88;;;;;;;11.97;100.00;99381.78;5404646;32;33822;-83
2023/10/19 10:14:57;;;;;;;19.00;10.70;;;;;;;12.45;100.00;99378.69;5418606;32;32981;-83
2023/10/19 10:18:14;;;;;;;18.92;10.75;;;;;;;12.14;100.00;99379.44;5405218;32;34607;-83
2023/10/19 10:21:23;;;;;;;18.40;11.40;;;;;;;12.19;100.00;99363.44;5405376;32;33826;-83
2023/10/19 10:24:27;;;;;;;19.08;11.60;;;;;;;12.42;100.00;99352.94;5405577;32;33930;-83
2023/10/19 10:27:30;;;;;;;19.50;11.00;;;;;;;13.11;100.00;99345.87;5404852;32;34766;-83
2023/10/19 10:30:33;;;;;;;19.73;11.52;;;;;;;13.57;100.00;99344.72;5405159;32;34774;-83
2023/10/19 10:33:46;;;;;;;19.12;10.73;;;;;;;13.18;100.00;99331.50;5392774;32;34188;-83
2023/10/19 10:37:10;;;;;;;18.62;10.73;;;;;;;12.91;100.00;99332.53;5418201;32;33764;-83
2023/10/19 10:40:15;;;;;;;19.77;11.48;;;;;;;12.56;100.00;99326.72;5397122;27;34953;-83
2023/10/19 10:43:19;;;;;;;20.92;11.18;;;;;;;12.11;100.00;99323.19;5366108;33;34066;-83
2023/10/19 10:46:28;;;;;;;17.25;10.85;;;;;;;12.12;100.00;99323.00;5377759;33;33596;-83
2023/10/19 10:49:33;;;;;;;20.12;10.85;;;;;;;11.93;100.00;99329.28;5375403;33;33804;-83
2023/10/19 10:52:36;;;;;;;18.23;11.12;;;;;;;11.67;100.00;99311.28;5347379;33;34025;-83
2023/10/19 10:55:40;;;;;;;19.58;11.73;;;;;;;11.52;100.00;99306.97;5374633;33;33896;-83
2023/10/19 10:58:44;;;;;;;19.10;11.20;;;;;;;11.35;100.00;99301.19;5353423;33;33997;-83
2023/10/19 11:01:48;;;;;;;22.90;12.73;;;;;;;11.44;100.00;99300.97;5377543;33;33518;-83
2023/10/19 11:04:51;;;;;;;18.48;11.43;;;;;;;11.52;100.00;99292.66;5342190;33;33835;-83
2023/10/19 11:08:04;;;;;;;21.75;11.82;;;;;;;11.38;100.00;99286.47;5353164;33;33832;-83
2023/10/19 11:11:11;;;;;;;20.35;12.05;;;;;;;11.51;100.00;99285.59;5378525;33;33444;-83
2023/10/19 11:14:14;;;;;;;22.85;11.70;;;;;;;11.54;100.00;99277.91;5354874;33;33687;-84
2023/10/19 11:17:17;;;;;;;20.95;12.15;;;;;;;11.61;100.00;99274.38;5353293;33;34293;-83
2023/10/19 11:20:25;;;;;;;18.80;12.25;;;;;;;12.33;100.00;99275.16;5354702;33;33922;-83
2023/10/19 11:23:56;;;;;;;19.70;11.95;;;;;;;12.84;100.00;99266.94;5365908;33;33897;-83
2023/10/19 11:27:00;;;;;;;22.87;12.60;;;;;;;12.94;100.00;99252.91;5378479;33;33862;-83
2023/10/19 11:30:04;;;;;;;23.40;12.60;;;;;;;12.80;100.00;99260.28;5373450;33;35381;-83
2023/10/19 11:33:08;;;;;;;22.17;12.57;;;;;;;13.36;100.00;99261.28;5383861;33;33132;-89
2023/10/19 11:36:12;;;;;;;20.42;11.55;;;;;;;13.89;100.00;99249.03;5352404;33;34853;-87
2023/10/19 11:39:15;;;;;;;22.55;12.43;;;;;;;14.52;100.00;99248.63;5361988;33;33783;-87
2023/10/19 11:42:18;;;;;;;20.20;12.57;;;;;;;15.18;100.00;99247.56;5389733;33;34222;-83
2023/10/19 11:45:23;;;;;;;22.15;13.75;;;;;;;15.76;100.00;99242.34;5378627;33;33797;-83
2023/10/19 11:48:26;;;;;;;22.10;12.23;;;;;;;16.32;100.00;99238.00;5374237;33;32401;-83
2023/10/19 11:51:31;;;;;;;22.02;12.80;;;;;;;15.86;100.00;99234.41;5371198;33;33152;-82
2023/10/19 11:54:34;;;;;;;22.00;14.35;;;;;;;15.31;100.00;99226.69;5352937;33;33785;-82
2023/10/19 11:57:44;;;;;;;21.62;12.90;;;;;;;14.87;100.00;99223.50;5361337;33;33688;-83
2023/10/19 12:00:48;;;;;;;24.35;12.93;;;;;;;15.15;100.00;99215.50;5364030;33;33590;-83
2023/10/19 12:03:51;;;;;;;22.27;13.98;;;;;;;17.09;100.00;99210.25;5352873;33;34105;-83
2023/10/19 12:06:55;;;;;;;25.10;13.68;;;;;;;17.71;99.39;99211.91;5364585;33;34626;-83
2023/10/19 12:09:58;;;;;;;20.75;13.50;;;;;;;17.30;100.00;99207.84;5345701;33;33766;-83
2023/10/19 12:13:08;;;;;;;20.67;13.52;;;;;;;17.97;97.07;99198.66;5363948;33;33239;-83
2023/10/19 12:16:19;;;;;;;22.60;13.20;;;;;;;18.50;92.09;99189.62;5377342;33;34230;-83
2023/10/19 12:19:23;;;;;;;19.33;13.45;;;;;;;19.32;84.93;99189.44;5377525;33;34815;-83
2023/10/19 12:22:34;;;;;;;23.40;12.93;;;;;;;19.28;84.06;99188.34;5363513;33;33521;-83
2023/10/19 12:25:38;;;;;;;19.17;12.80;;;;;;;19.25;82.06;99174.12;5364204;33;33801;-83
2023/10/19 12:28:58;;;;;;;21.20;12.93;;;;;;;18.77;87.13;99170.53;5376180;33;34668;-83
2023/10/19 12:32:01;;;;;;;23.87;14.10;;;;;;;19.76;80.53;99164.56;5352133;33;33901;-83
2023/10/19 12:35:11;;;;;;;22.13;13.73;;;;;;;20.30;78.71;99153.19;5370402;33;34732;-83
2023/10/19 12:38:17;;;;;;;21.90;13.85;;;;;;;18.42;84.79;99160.13;5359715;33;34241;-83
2023/10/19 12:41:21;;;;;;;23.83;13.32;;;;;;;16.99;93.38;99153.00;5366859;33;34348;-83
2023/10/19 12:44:24;;;;;;;24.85;13.48;;;;;;;15.84;100.00;99164.06;5379477;33;33988;-84
2023/10/19 12:47:46;;;;;;;23.80;13.38;;;;;;;15.10;100.00;99154.94;5358725;33;35560;-83
2023/10/19 12:50:49;;;;;;;21.37;13.48;;;;;;;14.46;100.00;99150.16;5381083;33;33370;-86
2023/10/19 12:53:52;;;;;;;26.67;14.95;;;;;;;14.50;100.00;99136.97;5368295;33;34705;-87
2023/10/19 12:56:55;;;;;;;25.35;15.15;;;;;;;14.23;100.00;99129.28;5386258;33;33903;-87
2023/10/19 13:00:06;;;;;;;25.00;13.43;;;;;;;13.82;100.00;99140.91;5363245;33;34124;-87
2023/10/19 13:03:13;;;;;;;27.23;13.62;;;;;;;13.76;100.00;99120.19;5354523;33;34825;-84
2023/10/19 13:06:17;;;;;;;25.30;15.23;;;;;;;13.43;100.00;99128.75;5368235;33;33873;-84
2023/10/19 13:09:23;;;;;;;24.98;14.40;;;;;;;13.71;100.00;99126.28;5366871;33;34779;-82
2023/10/19 13:12:26;;;;;;;27.10;14.68;;;;;;;13.68;100.00;99113.22;5367324;33;34089;-82
2023/10/19 13:15:37;;;;;;;27.75;13.50;;;;;;;13.46;100.00;99112.91;5354766;33;34279;-82
2023/10/19 13:18:41;;;;;;;24.52;14.27;;;;;;;13.53;100.00;99102.81;5374517;33;33761;-83
2023/10/19 13:21:44;;;;;;;29.50;15.00;;;;;;;13.49;100.00;99106.22;5379382;33;33901;-83
2023/10/19 13:24:48;;;;;;;26.08;13.18;;;;;;;13.72;100.00;99100.09;5363630;33;33745;-82
2023/10/19 13:27:51;;;;;;;32.25;13.88;;;;;;;13.78;100.00;99097.28;5366410;33;34111;-82
2023/10/19 13:30:54;;;;;;;27.05;15.10;;;;;;;13.92;100.00;99099.78;5378716;33;33594;-81
2023/10/19 13:33:59;;;;;;;24.45;13.30;;;;;;;13.81;100.00;99087.88;5375251;33;33991;-81
2023/10/19 13:37:02;;;;;;;23.77;12.93;;;;;;;13.83;100.00;99094.72;5361381;33;33805;-83
2023/10/19 13:40:06;;;;;;;30.88;16.62;;;;;;;13.83;100.00;99083.91;5364007;33;33441;-83
2023/10/19 13:43:13;;;;;;;21.60;13.05;;;;;;;13.52;100.00;99086.84;5362500;33;33559;-83
2023/10/19 13:46:16;;;;;;;24.30;13.52;;;;;;;13.43;100.00;99094.44;5362899;33;34121;-83
2023/10/19 13:49:22;;;;;;;28.92;15.32;;;;;;;13.33;100.00;99084.16;5365422;33;33354;-83
2023/10/19 13:52:25;;;;;;;28.80;14.68;;;;;;;13.30;100.00;99081.91;5354463;33;33647;-83
2023/10/19 13:55:28;;;;;;;36.53;16.02;;;;;;;13.50;100.00;99067.31;5379358;33;34236;-83
2023/10/19 13:58:33;;;;;;;47.92;18.30;;;;;;;13.15;100.00;99073.34;5379523;33;34735;-83
2023/10/19 14:01:36;;;;;;;36.67;15.95;;;;;;;13.12;100.00;99080.00;5374886;33;149335;-82
2023/10/19 14:04:39;;;;;;;34.47;15.75;;;;;;;12.94;100.00;99074.62;5353536;33;34669;-82
2023/10/19 14:07:43;;;;;;;33.55;14.38;;;;;;;12.66;100.00;99075.94;5340923;33;35129;-82
2023/10/19 14:10:46;;;;;;;27.55;14.93;;;;;;;12.52;100.00;99070.91;5355240;33;33996;-82
2023/10/19 14:13:52;;;;;;;32.97;14.85;;;;;;;12.56;100.00;99064.03;5370325;33;34733;-82
2023/10/19 14:16:55;;;;;;;30.33;14.87;;;;;;;12.50;100.00;99071.13;5364259;33;33694;-82
2023/10/19 14:19:58;;;;;;;38.75;16.05;;;;;;;12.35;100.00;99066.09;5355168;33;34277;-83
2023/10/19 14:23:04;;;;;;;35.92;16.77;;;;;;;12.32;100.00;99068.41;5365878;33;33603;-83
2023/10/19 14:26:09;;;;;;;27.23;14.23;;;;;;;12.21;100.00;99072.63;5377915;33;33352;-83
2023/10/19 14:29:13;;;;;;;29.98;13.75;;;;;;;12.06;100.00;99066.75;5353429;33;33985;-83
2023/10/19 14:32:16;;;;;;;34.05;14.87;;;;;;;11.98;100.00;99057.88;5353092;33;33469;-83
2023/10/19 14:35:21;;;;;;;80.43;22.98;;;;;;;11.98;100.00;99048.97;5365976;33;35305;-83
2023/10/19 14:38:27;;;;;;;46.03;17.30;;;;;;;11.83;100.00;99038.47;5376026;33;34714;-86
2023/10/19 14:41:30;;;;;;;30.17;13.85;;;;;;;11.76;100.00;99048.47;5352837;33;35075;-87
2023/10/19 14:44:33;;;;;;;27.75;14.82;;;;;;;11.78;100.00;99044.50;5340714;33;33902;-87
2023/10/19 14:47:40;;;;;;;26.80;13.68;;;;;;;11.78;100.00;99049.88;5364717;33;34532;-83
2023/10/19 14:51:02;;;;;;;22.30;12.85;;;;;;;11.76;100.00;99043.09;5378760;33;34573;-83
2023/10/19 14:54:05;;;;;;;26.25;14.45;;;;;;;11.79;100.00;99046.16;5341910;33;33969;-83
2023/10/19 14:57:08;;;;;;;28.90;15.35;;;;;;;11.70;100.00;99042.09;5351508;33;35305;-84
2023/10/19 15:00:21;;;;;;;26.08;15.45;;;;;;;11.62;100.00;99039.66;5364788;33;34365;-84
2023/10/19 15:03:24;;;;;;;23.58;14.20;;;;;;;11.66;100.00;99040.03;5378733;33;34768;-83
2023/10/19 15:06:29;;;;;;;26.27;14.32;;;;;;;11.59;100.00;99026.59;5365148;33;34377;-83
2023/10/19 15:09:36;;;;;;;27.40;14.07;;;;;;;11.54;100.00;99021.84;5365268;33;34484;-82
2023/10/19 15:12:39;;;;;;;28.33;15.90;;;;;;;11.54;100.00;99018.34;5353398;33;34009;-83
2023/10/19 15:15:42;;;;;;;29.42;15.13;;;;;;;11.43;100.00;99021.72;5366045;33;33259;-83
2023/10/19 15:20:16;;;;;;;37.47;17.37;;;;;;;11.64;100.00;99023.25;5615636;31;194101;-86
2023/10/19 15:23:20;;;;;;;28.80;15.18;;;;;;;11.64;100.00;99023.25;5600667;31;33455;-87
2023/10/19 15:26:24;;;;;;;30.40;16.27;;;;;;;11.06;100.00;99008.88;5602407;31;34201;-87
2023/10/19 15:29:27;;;;;;;30.42;16.30;;;;;;;11.06;100.00;99008.88;5588127;31;33496;-83
2023/10/19 15:32:30;;;;;;;31.40;15.00;;;;;;;10.96;100.00;99004.97;5600659;31;33710;-83
2023/10/19 15:35:36;;;;;;;32.78;14.98;;;;;;;10.93;100.00;99003.53;5587672;31;34443;-83
2023/10/19 15:38:39;;;;;;;31.60;15.85;;;;;;;10.89;100.00;98997.75;5600709;31;33681;-83
2023/10/19 15:41:42;;;;;;;33.22;16.80;;;;;;;10.94;100.00;98993.59;5602339;31;34316;-83
2023/10/19 15:44:45;;;;;;;36.00;15.98;;;;;;;10.90;100.00;98999.41;5574889;31;33683;-83
2023/10/19 15:47:52;;;;;;;39.28;17.98;;;;;;;10.88;100.00;98988.03;5601474;31;33228;-83
2023/10/19 15:50:56;;;;;;;36.55;17.73;;;;;;;10.88;100.00;98982.66;5602111;31;33585;-83
2023/10/19 15:54:01;;;;;;;39.75;17.77;;;;;;;10.92;100.00;98974.97;5600923;31;33328;-83
2023/10/19 15:57:05;;;;;;;38.85;16.70;;;;;;;10.88;100.00;98966.50;5588474;31;34184;-83
